Time;durP1;ratioP1;P1;durP2;ratioP2;P2;SDS_P1;SDS_P2;PMS_P1;PMS_P2;Temp;Humidity;BMP_temperature;BMP_pressure;BME280_temperature;BME280_humidity;BME280_pressure;Samples;Min_cycle;Max_cycle;Signal;HPM_P1;HPM_P2
2022/11/24 00:01:50;;;;;;;1.60;1.60;;;17.30;72.30;;;;;;5066211;28;43497;-73
2022/11/24 00:04:18;;;;;;;1.80;1.80;;;17.30;72.40;;;;;;5070097;28;43906;-71
2022/11/24 00:06:46;;;;;;;1.70;1.70;;;17.30;72.50;;;;;;5064423;28;43419;-72
2022/11/24 00:09:13;;;;;;;1.73;1.67;;;17.30;72.90;;;;;;5045659;28;43345;-73
2022/11/24 00:11:41;;;;;;;1.60;1.60;;;17.30;72.90;;;;;;5069304;28;43367;-73
2022/11/24 00:14:10;;;;;;;1.50;1.50;;;17.40;72.60;;;;;;5063781;28;43598;-72
2022/11/24 00:16:39;;;;;;;1.33;1.33;;;17.50;72.20;;;;;;5045042;28;44674;-73
2022/11/24 00:19:08;;;;;;;1.60;1.60;;;17.60;71.90;;;;;;5067740;28;43414;-73
2022/11/24 00:21:36;;;;;;;1.50;1.50;;;17.50;71.70;;;;;;5041093;28;43553;-72
2022/11/24 00:24:05;;;;;;;1.50;1.50;;;17.50;71.80;;;;;;5067837;28;43599;-71
2022/11/24 00:26:34;;;;;;;1.40;1.40;;;17.50;72.20;;;;;;5067947;28;43382;-73
2022/11/24 00:29:04;;;;;;;2.00;1.90;;;17.50;72.10;;;;;;5069875;28;43357;-72
2022/11/24 00:31:33;;;;;;;1.40;1.40;;;17.50;72.00;;;;;;5064847;28;43960;-71
2022/11/24 00:34:03;;;;;;;1.70;1.70;;;17.40;71.90;;;;;;5059742;28;43838;-72
2022/11/24 00:36:32;;;;;;;1.60;1.60;;;17.40;72.00;;;;;;5048169;28;44783;-72
2022/11/24 00:39:01;;;;;;;1.50;1.50;;;17.40;72.30;;;;;;5045275;28;43484;-73
2022/11/24 00:41:29;;;;;;;1.53;1.53;;;17.30;72.50;;;;;;5065504;28;43357;-73
2022/11/24 00:43:56;;;;;;;1.70;1.70;;;17.30;72.30;;;;;;5067723;28;43607;-73
2022/11/24 00:46:25;;;;;;;1.50;1.50;;;17.30;72.20;;;;;;5064519;28;44429;-71
2022/11/24 00:48:53;;;;;;;1.60;1.60;;;17.30;72.30;;;;;;5068903;28;43522;-72
2022/11/24 00:51:23;;;;;;;1.40;1.40;;;17.30;72.40;;;;;;5043244;28;44488;-73
2022/11/24 00:53:52;;;;;;;1.50;1.50;;;17.30;72.50;;;;;;5062720;28;43603;-72
2022/11/24 00:56:20;;;;;;;1.60;1.50;;;17.30;72.90;;;;;;5064379;28;43358;-73
2022/11/24 00:58:47;;;;;;;1.30;1.30;;;17.40;72.70;;;;;;5065780;28;43401;-73
2022/11/24 01:01:16;;;;;;;1.53;1.53;;;17.50;72.40;;;;;;5066785;28;43353;-73
2022/11/24 01:03:45;;;;;;;1.40;1.40;;;17.50;72.10;;;;;;5066314;28;43612;-73
2022/11/24 01:06:14;;;;;;;1.40;1.40;;;17.50;72.00;;;;;;5063441;28;43600;-72
2022/11/24 01:08:43;;;;;;;1.40;1.40;;;17.40;71.90;;;;;;5061315;28;43432;-72
2022/11/24 01:11:12;;;;;;;1.43;1.43;;;17.40;72.40;;;;;;5049364;28;43501;-73
2022/11/24 01:13:40;;;;;;;1.80;1.70;;;17.40;72.40;;;;;;5065229;28;43991;-71
2022/11/24 01:16:14;;;;;;;1.50;1.50;;;17.40;72.20;;;;;;5049019;28;44649;-72
2022/11/24 01:18:42;;;;;;;1.40;1.40;;;17.40;72.20;;;;;;5064482;28;43414;-73
2022/11/24 01:21:10;;;;;;;1.30;1.30;;;17.40;72.30;;;;;;5049274;28;43539;-73
2022/11/24 01:23:38;;;;;;;1.47;1.47;;;17.30;72.20;;;;;;5066894;28;43608;-72
2022/11/24 01:26:07;;;;;;;1.40;1.40;;;17.30;72.60;;;;;;5047239;28;44582;-73
2022/11/24 01:28:35;;;;;;;1.33;1.33;;;17.30;72.70;;;;;;5069531;28;43811;-71
2022/11/24 01:31:08;;;;;;;1.40;1.40;;;17.40;72.40;;;;;;5068296;28;43398;-72
2022/11/24 01:33:36;;;;;;;1.80;1.70;;;17.50;72.00;;;;;;5064401;28;43593;-72
2022/11/24 01:36:05;;;;;;;1.27;1.27;;;17.50;71.90;;;;;;5066793;28;43980;-72
2022/11/24 01:38:33;;;;;;;1.20;1.20;;;17.50;71.80;;;;;;5047517;28;43392;-71
2022/11/24 01:41:02;;;;;;;1.70;1.70;;;17.40;71.90;;;;;;5064532;28;43400;-72
2022/11/24 01:43:32;;;;;;;1.40;1.40;;;17.40;72.20;;;;;;5066159;28;43616;-73
2022/11/24 01:46:03;;;;;;;1.40;1.40;;;17.50;72.20;;;;;;5071725;28;43384;-73
2022/11/24 01:48:34;;;;;;;1.10;1.10;;;17.40;72.00;;;;;;5070860;28;43333;-73
2022/11/24 01:51:06;;;;;;;1.50;1.50;;;17.40;72.00;;;;;;5069771;28;44022;-72
2022/11/24 01:53:34;;;;;;;1.43;1.43;;;17.40;72.20;;;;;;5046975;28;44073;-72
2022/11/24 01:56:02;;;;;;;1.50;1.50;;;17.30;72.20;;;;;;5070142;28;44002;-74
2022/11/24 01:58:31;;;;;;;1.20;1.20;;;17.30;72.50;;;;;;5075186;28;43420;-73
2022/11/24 02:01:00;;;;;;;1.50;1.50;;;17.30;72.50;;;;;;5071128;28;43327;-73
2022/11/24 02:03:30;;;;;;;1.30;1.30;;;17.30;72.40;;;;;;5072798;28;43889;-72
2022/11/24 02:05:59;;;;;;;1.63;1.63;;;17.30;72.40;;;;;;5049943;28;44543;-74
2022/11/24 02:08:30;;;;;;;1.97;1.87;;;17.30;72.40;;;;;;5053421;28;43381;-72
2022/11/24 02:10:58;;;;;;;1.30;1.30;;;17.30;72.70;;;;;;5062541;28;43444;-72
2022/11/24 02:13:26;;;;;;;1.30;1.30;;;17.30;72.90;;;;;;5043974;28;45688;-75
2022/11/24 02:15:55;;;;;;;1.50;1.50;;;17.40;72.70;;;;;;5070569;28;43431;-72
2022/11/24 02:18:23;;;;;;;1.47;1.47;;;17.50;72.20;;;;;;5047399;28;43478;-72
2022/11/24 02:20:51;;;;;;;1.50;1.40;;;17.50;71.90;;;;;;5069999;28;43404;-72
2022/11/24 02:23:21;;;;;;;1.30;1.30;;;17.50;71.70;;;;;;5070584;28;43857;-72
2022/11/24 02:25:53;;;;;;;1.47;1.47;;;17.50;71.80;;;;;;5068749;28;43425;-71
2022/11/24 02:28:22;;;;;;;1.30;1.30;;;17.50;72.20;;;;;;5068833;28;43495;-72
2022/11/24 02:30:50;;;;;;;1.43;1.43;;;17.50;72.10;;;;;;5065157;28;43340;-72
2022/11/24 02:33:19;;;;;;;1.13;1.13;;;17.50;72.10;;;;;;5049868;28;45845;-75
2022/11/24 02:35:47;;;;;;;1.17;1.17;;;17.50;72.00;;;;;;5060588;28;43372;-71
2022/11/24 02:38:15;;;;;;;1.00;1.00;;;17.40;72.00;;;;;;5042907;28;43958;-74
2022/11/24 02:40:44;;;;;;;1.10;1.10;;;17.40;72.20;;;;;;5063376;28;43423;-73
2022/11/24 02:43:13;;;;;;;1.40;1.40;;;17.30;72.50;;;;;;5067670;28;43821;-73
2022/11/24 02:45:42;;;;;;;1.47;1.43;;;17.30;72.50;;;;;;5064988;28;43406;-73
2022/11/24 02:48:10;;;;;;;1.23;1.23;;;17.30;72.40;;;;;;5046343;28;44009;-72
2022/11/24 02:50:38;;;;;;;1.33;1.33;;;17.30;72.30;;;;;;5064789;28;43393;-73
2022/11/24 02:53:06;;;;;;;1.30;1.30;;;17.30;72.40;;;;;;5061167;28;43815;-74
2022/11/24 02:55:34;;;;;;;1.20;1.20;;;17.30;72.50;;;;;;5049018;28;44573;-71
2022/11/24 02:58:02;;;;;;;1.33;1.33;;;17.20;72.90;;;;;;5067373;28;43380;-73
2022/11/24 03:00:30;;;;;;;1.20;1.20;;;17.30;72.90;;;;;;5068400;28;43611;-72
2022/11/24 03:02:59;;;;;;;1.57;1.57;;;17.40;72.60;;;;;;5064756;28;43890;-72
2022/11/24 03:05:27;;;;;;;1.10;1.10;;;17.40;72.30;;;;;;5064595;28;43495;-73
2022/11/24 03:07:55;;;;;;;1.20;1.20;;;17.40;72.10;;;;;;5070385;28;43460;-72
2022/11/24 03:10:23;;;;;;;1.30;1.30;;;17.40;72.10;;;;;;5065794;28;43416;-72
2022/11/24 03:12:51;;;;;;;1.30;1.30;;;17.40;72.50;;;;;;5050728;28;45734;-73
2022/11/24 03:15:19;;;;;;;1.37;1.37;;;17.40;72.50;;;;;;5058435;28;43408;-73
2022/11/24 03:17:47;;;;;;;1.40;1.40;;;17.40;72.40;;;;;;5051451;28;43298;-71
2022/11/24 03:20:17;;;;;;;1.30;1.30;;;17.40;72.30;;;;;;5064725;28;43416;-72
2022/11/24 03:22:45;;;;;;;1.20;1.20;;;17.40;72.30;;;;;;5051628;28;45356;-72
2022/11/24 03:25:13;;;;;;;1.40;1.40;;;17.30;72.30;;;;;;5064976;28;43462;-73
2022/11/24 03:27:41;;;;;;;1.60;1.50;;;17.30;72.50;;;;;;5053019;28;43408;-73
2022/11/24 03:30:10;;;;;;;1.40;1.40;;;17.30;72.80;;;;;;5065771;28;43550;-71
2022/11/24 03:32:38;;;;;;;1.23;1.23;;;17.40;72.70;;;;;;5069869;28;44236;-73
2022/11/24 03:35:07;;;;;;;1.40;1.40;;;17.50;73.00;;;;;;5059129;28;43475;-73
2022/11/24 03:37:36;;;;;;;1.40;1.40;;;17.50;72.10;;;;;;5066370;28;43333;-72
2022/11/24 03:40:05;;;;;;;1.40;1.40;;;17.50;71.90;;;;;;5065817;28;43523;-72
2022/11/24 03:42:33;;;;;;;1.20;1.20;;;17.40;71.90;;;;;;5067584;28;43815;-72
2022/11/24 03:45:01;;;;;;;1.40;1.40;;;17.40;72.40;;;;;;5062428;28;43400;-73
2022/11/24 03:47:50;;;;;;;1.20;1.20;;;17.40;72.30;;;;;;5070247;28;43430;-72
2022/11/24 03:50:18;;;;;;;1.20;1.20;;;17.40;72.20;;;;;;5065485;28;43381;-72
2022/11/24 03:52:47;;;;;;;1.30;1.30;;;17.40;72.20;;;;;;5070218;28;43853;-74
2022/11/24 03:55:15;;;;;;;1.30;1.30;;;17.40;72.30;;;;;;5062775;28;43431;-73
2022/11/24 03:57:43;;;;;;;1.40;1.40;;;17.30;72.30;;;;;;5061666;28;43416;-71
2022/11/24 04:00:12;;;;;;;1.30;1.30;;;17.30;72.70;;;;;;5069561;28;43443;-73
2022/11/24 04:02:40;;;;;;;1.13;1.13;;;17.30;72.80;;;;;;5048241;28;45852;-72
2022/11/24 04:05:08;;;;;;;1.37;1.27;;;17.40;72.60;;;;;;5044276;28;44692;-73
2022/11/24 04:07:36;;;;;;;1.30;1.30;;;17.50;72.20;;;;;;5069738;28;43403;-72
2022/11/24 04:10:07;;;;;;;1.40;1.40;;;17.50;72.10;;;;;;5047108;28;43524;-72
2022/11/24 04:12:43;;;;;;;1.43;1.43;;;17.50;72.00;;;;;;5066789;28;43600;-72
2022/11/24 04:15:11;;;;;;;1.20;1.20;;;17.40;72.00;;;;;;5067431;28;43365;-71
2022/11/24 04:17:39;;;;;;;1.27;1.27;;;17.40;72.40;;;;;;5065049;28;43408;-72
2022/11/24 04:20:08;;;;;;;1.10;1.10;;;17.40;72.30;;;;;;5060782;28;43554;-72
2022/11/24 04:22:36;;;;;;;1.10;1.10;;;17.40;72.20;;;;;;5067865;28;43954;-72
2022/11/24 04:25:07;;;;;;;1.30;1.30;;;17.40;72.30;;;;;;5068439;28;43489;-73
2022/11/24 04:27:35;;;;;;;1.20;1.20;;;17.30;72.30;;;;;;5068291;28;43497;-71
2022/11/24 04:30:03;;;;;;;1.43;1.37;;;17.30;72.50;;;;;;5068243;28;43827;-73
2022/11/24 04:32:31;;;;;;;1.17;1.17;;;17.30;72.90;;;;;;5071646;28;43993;-72
2022/11/24 04:34:59;;;;;;;1.20;1.20;;;17.30;72.70;;;;;;5063884;28;43434;-72
2022/11/24 04:37:27;;;;;;;1.13;1.13;;;17.30;72.50;;;;;;5070716;28;43355;-73
2022/11/24 04:39:55;;;;;;;0.93;0.93;;;17.30;72.50;;;;;;5047188;28;43432;-72
2022/11/24 04:42:24;;;;;;;1.50;1.50;;;17.20;72.50;;;;;;5064573;28;43922;-72
2022/11/24 04:44:52;;;;;;;1.20;1.20;;;17.20;72.70;;;;;;5071189;28;43460;-72
2022/11/24 04:47:21;;;;;;;1.30;1.30;;;17.20;73.00;;;;;;5067262;28;43396;-73
2022/11/24 04:49:50;;;;;;;1.23;1.23;;;17.30;72.90;;;;;;5064979;28;44000;-72
2022/11/24 04:52:18;;;;;;;1.23;1.23;;;17.20;72.60;;;;;;5063680;28;43825;-72
2022/11/24 04:54:46;;;;;;;1.50;1.40;;;17.30;72.60;;;;;;5066611;28;43444;-72
2022/11/24 04:57:15;;;;;;;1.20;1.20;;;17.30;72.70;;;;;;5068851;28;43410;-72
2022/11/24 04:59:44;;;;;;;1.20;1.20;;;17.20;72.70;;;;;;5048878;28;43639;-73
2022/11/24 05:02:12;;;;;;;1.40;1.40;;;17.20;73.10;;;;;;5062282;28;43603;-72
2022/11/24 05:04:40;;;;;;;1.37;1.37;;;17.30;73.10;;;;;;5066965;28;43350;-75
2022/11/24 05:07:10;;;;;;;1.20;1.20;;;17.40;72.80;;;;;;5044818;28;43373;-72
2022/11/24 05:12:31;;;;;;;1.20;1.20;;;17.60;71.90;;;;;;5065454;28;43882;-74
2022/11/24 05:15:00;;;;;;;1.20;1.20;;;17.50;71.60;;;;;;5070478;28;43899;-72
2022/11/24 05:17:29;;;;;;;1.17;1.17;;;17.50;72.00;;;;;;5056579;28;43411;-72
2022/11/24 05:19:57;;;;;;;1.30;1.30;;;17.50;72.10;;;;;;5070394;28;43524;-73
2022/11/24 05:22:25;;;;;;;1.13;1.13;;;17.50;71.90;;;;;;5068746;28;43841;-72
2022/11/24 05:24:53;;;;;;;1.10;1.10;;;17.50;71.90;;;;;;5068680;28;43388;-71
2022/11/24 05:27:21;;;;;;;1.30;1.30;;;17.50;72.00;;;;;;5049993;28;43515;-73
2022/11/24 05:29:49;;;;;;;1.50;1.40;;;17.40;72.00;;;;;;5050874;28;43560;-74
2022/11/24 05:32:19;;;;;;;1.40;1.40;;;17.40;72.30;;;;;;5065311;28;43599;-72
2022/11/24 05:34:47;;;;;;;1.10;1.10;;;17.40;72.70;;;;;;5066370;28;43410;-72
2022/11/24 05:37:14;;;;;;;1.10;1.10;;;17.40;72.40;;;;;;5064184;28;43403;-71
2022/11/24 05:39:42;;;;;;;1.00;1.00;;;17.40;72.40;;;;;;5065063;28;43439;-73
2022/11/24 05:44:56;;;;;;;1.30;1.30;;;17.30;72.30;;;;;;5065507;28;43459;-72
2022/11/24 05:47:26;;;;;;;1.30;1.30;;;17.30;72.50;;;;;;5065649;28;43833;-72
2022/11/24 05:49:54;;;;;;;1.10;1.10;;;17.30;72.90;;;;;;5065369;28;43504;-71
2022/11/24 05:52:22;;;;;;;1.50;1.50;;;17.40;72.70;;;;;;5047063;28;45736;-72
2022/11/24 05:54:49;;;;;;;1.17;1.17;;;17.50;72.30;;;;;;5059713;28;43376;-73
2022/11/24 05:57:17;;;;;;;1.20;1.20;;;17.60;71.90;;;;;;5073607;28;43416;-72
2022/11/24 05:59:45;;;;;;;1.17;1.17;;;17.60;71.60;;;;;;5049846;28;43396;-72
2022/11/24 06:02:13;;;;;;;2.97;1.30;;;17.50;71.60;;;;;;5065143;28;43955;-72
2022/11/24 06:04:42;;;;;;;1.90;1.27;;;17.50;72.20;;;;;;5068753;28;43422;-71
2022/11/24 06:07:11;;;;;;;1.30;1.30;;;17.50;72.00;;;;;;5052202;28;43833;-71
2022/11/24 06:09:39;;;;;;;1.50;1.40;;;17.50;71.90;;;;;;5069325;28;43474;-72
2022/11/24 06:12:07;;;;;;;1.40;1.40;;;17.50;71.90;;;;;;5066747;28;43755;-72
2022/11/24 06:14:36;;;;;;;1.30;1.30;;;17.40;71.90;;;;;;5061628;28;43369;-74
2022/11/24 06:17:04;;;;;;;1.13;1.10;;;17.40;72.10;;;;;;5069993;28;43375;-72
2022/11/24 06:19:32;;;;;;;1.37;1.37;;;17.40;72.60;;;;;;5068388;28;44235;-72
2022/11/24 06:22:06;;;;;;;1.20;1.20;;;17.40;72.60;;;;;;5067064;28;43921;-72
2022/11/24 06:24:34;;;;;;;1.17;1.17;;;17.40;72.30;;;;;;5069389;28;43374;-72
2022/11/24 06:27:03;;;;;;;1.40;1.40;;;17.40;72.30;;;;;;5064593;28;43440;-71
2022/11/24 06:29:31;;;;;;;1.50;1.50;;;17.30;72.30;;;;;;5071676;28;43431;-73
2022/11/24 06:31:59;;;;;;;1.30;1.30;;;17.30;72.40;;;;;;5063176;28;43802;-72
2022/11/24 06:34:27;;;;;;;1.40;1.40;;;17.30;72.60;;;;;;5052487;28;44663;-73
2022/11/24 06:36:55;;;;;;;1.50;1.50;;;17.30;72.90;;;;;;5068084;28;43448;-72
2022/11/24 06:39:24;;;;;;;1.40;1.40;;;17.40;72.70;;;;;;5070921;28;43469;-72
2022/11/24 06:41:52;;;;;;;1.47;1.40;;;17.50;72.20;;;;;;5067645;28;43898;-72
2022/11/24 06:44:21;;;;;;;1.20;1.20;;;17.60;71.90;;;;;;5068787;28;43859;-74
2022/11/24 06:46:49;;;;;;;1.30;1.30;;;17.50;71.60;;;;;;5043373;28;43393;-71
2022/11/24 06:49:17;;;;;;;1.70;1.17;;;17.50;71.80;;;;;;5046400;28;43463;-72
2022/11/24 06:51:45;;;;;;;1.30;1.30;;;17.50;72.20;;;;;;5064850;28;44028;-72
2022/11/24 06:54:14;;;;;;;1.20;1.20;;;17.50;72.00;;;;;;5062259;28;43857;-71
2022/11/24 06:56:44;;;;;;;1.37;1.37;;;17.50;71.90;;;;;;5044988;28;43405;-71
2022/11/24 06:59:16;;;;;;;1.30;1.30;;;17.40;71.80;;;;;;5064695;28;43578;-72
2022/11/24 07:01:46;;;;;;;1.30;1.30;;;17.40;72.00;;;;;;5067605;28;43853;-71
2022/11/24 07:04:14;;;;;;;1.23;1.23;;;17.40;72.20;;;;;;5046418;28;44746;-72
2022/11/24 07:06:42;;;;;;;1.10;1.10;;;17.40;72.60;;;;;;5046329;28;43572;-72
2022/11/24 07:09:11;;;;;;;1.40;1.30;;;17.40;73.10;;;;;;5049467;28;43977;-72
2022/11/24 07:11:39;;;;;;;1.10;1.10;;;17.40;72.30;;;;;;5063733;28;43975;-72
2022/11/24 07:14:08;;;;;;;1.20;1.20;;;17.40;72.40;;;;;;5060695;28;43408;-71
2022/11/24 07:16:36;;;;;;;1.40;1.40;;;17.40;72.40;;;;;;5064682;28;43442;-72
2022/11/24 07:19:05;;;;;;;1.60;1.60;;;17.30;72.40;;;;;;5052143;28;43468;-73
2022/11/24 07:21:32;;;;;;;1.60;1.60;;;17.30;72.00;;;;;;5067522;28;43945;-73
2022/11/24 07:24:00;;;;;;;1.60;1.50;;;17.30;71.80;;;;;;5051263;28;44732;-72
2022/11/24 07:26:28;;;;;;;2.87;1.63;;;17.30;71.80;;;;;;5066051;28;43440;-71
2022/11/24 07:28:56;;;;;;;2.27;1.63;;;17.30;71.90;;;;;;5061999;28;43407;-73
2022/11/24 07:31:25;;;;;;;3.90;1.83;;;17.30;71.90;;;;;;5065341;28;43895;-72
2022/11/24 07:33:54;;;;;;;2.97;1.80;;;17.30;72.20;;;;;;5054469;28;44574;-73
2022/11/24 07:36:22;;;;;;;5.60;1.80;;;17.30;72.60;;;;;;5068878;28;43387;-72
2022/11/24 07:38:50;;;;;;;1.77;1.60;;;17.30;72.50;;;;;;5066866;28;43420;-73
2022/11/24 07:41:19;;;;;;;1.97;1.77;;;17.50;72.40;;;;;;5060559;28;43892;-72
2022/11/24 07:43:47;;;;;;;2.53;1.70;;;17.60;71.90;;;;;;5065962;28;43767;-72
2022/11/24 07:46:16;;;;;;;1.37;1.37;;;17.70;71.60;;;;;;5067871;28;43487;-72
2022/11/24 07:48:45;;;;;;;1.80;1.67;;;17.60;71.20;;;;;;5066445;28;43485;-72
2022/11/24 07:51:14;;;;;;;1.70;1.60;;;17.60;71.50;;;;;;5061819;28;43938;-72
2022/11/24 07:53:42;;;;;;;2.17;1.87;;;17.60;71.80;;;;;;5068220;28;43414;-71
2022/11/24 07:56:11;;;;;;;1.63;1.57;;;17.60;71.60;;;;;;5045284;28;43472;-74
2022/11/24 07:58:39;;;;;;;1.90;1.80;;;17.60;71.50;;;;;;5076681;28;43490;-72
2022/11/24 08:01:11;;;;;;;1.90;1.80;;;17.50;71.60;;;;;;5069883;28;43916;-75
2022/11/24 08:03:48;;;;;;;2.73;2.10;;;17.50;71.80;;;;;;5156215;27;43408;-71
2022/11/24 08:06:17;;;;;;;2.50;2.30;;;17.40;71.90;;;;;;5150226;27;43883;-73
2022/11/24 08:09:03;;;;;;;5.17;2.40;;;17.40;72.40;;;;;;5158843;27;43403;-71
2022/11/24 08:11:31;;;;;;;2.30;2.10;;;17.40;72.10;;;;;;5151041;27;43512;-72
2022/11/24 08:13:59;;;;;;;1.60;1.50;;;17.40;72.10;;;;;;5158470;27;43785;-72
2022/11/24 08:16:27;;;;;;;2.40;2.00;;;17.40;72.10;;;;;;5156703;27;43395;-72
2022/11/24 08:18:59;;;;;;;3.77;2.53;;;17.40;72.20;;;;;;5150628;27;43396;-75
2022/11/24 08:21:27;;;;;;;4.73;2.93;;;17.40;72.40;;;;;;5155207;27;43616;-73
2022/11/24 08:23:55;;;;;;;3.33;2.67;;;17.40;72.80;;;;;;5157869;27;43928;-73
2022/11/24 08:26:24;;;;;;;2.87;2.57;;;17.40;72.50;;;;;;5155508;27;43432;-72
2022/11/24 08:28:53;;;;;;;2.83;2.50;;;17.40;72.40;;;;;;5150501;27;43443;-72
2022/11/24 08:31:21;;;;;;;2.90;2.60;;;17.40;72.40;;;;;;5157715;27;43415;-72
2022/11/24 08:33:49;;;;;;;6.30;2.80;;;17.30;72.40;;;;;;5152086;27;43598;-72
2022/11/24 08:36:19;;;;;;;3.20;2.63;;;17.30;72.50;;;;;;5161008;27;43326;-71
2022/11/24 08:38:48;;;;;;;5.27;3.10;;;17.30;73.00;;;;;;5140837;27;43421;-72
2022/11/24 08:41:16;;;;;;;3.63;2.67;;;17.40;73.10;;;;;;5152517;27;43781;-73
2022/11/24 08:43:44;;;;;;;4.73;3.20;;;17.50;72.80;;;;;;5145768;27;45365;-72
2022/11/24 08:46:15;;;;;;;3.37;3.07;;;17.60;72.30;;;;;;5155151;27;45234;-73
2022/11/24 08:48:44;;;;;;;3.13;2.80;;;17.70;72.00;;;;;;5150265;27;43390;-72
2022/11/24 08:51:13;;;;;;;4.13;3.17;;;17.60;71.80;;;;;;5150259;27;43460;-72
2022/11/24 08:53:42;;;;;;;5.87;3.13;;;17.60;72.20;;;;;;5143190;27;45577;-71
2022/11/24 08:56:11;;;;;;;4.50;3.33;;;17.60;72.20;;;;;;5148964;27;43376;-72
2022/11/24 08:58:38;;;;;;;4.70;3.13;;;17.60;72.10;;;;;;5148502;27;43471;-73
2022/11/24 09:01:07;;;;;;;4.23;3.10;;;17.60;72.00;;;;;;5146878;27;43326;-72
2022/11/24 09:03:36;;;;;;;3.90;3.50;;;17.50;72.10;;;;;;5150587;27;43691;-72
2022/11/24 09:06:04;;;;;;;3.50;3.17;;;17.50;72.30;;;;;;5149665;27;43393;-72
2022/11/24 09:08:32;;;;;;;3.97;3.17;;;17.50;72.60;;;;;;5154434;27;43364;-72
2022/11/24 09:11:02;;;;;;;4.83;3.23;;;17.50;72.90;;;;;;5153671;27;43455;-71
2022/11/24 09:13:30;;;;;;;4.10;3.20;;;17.50;72.70;;;;;;5152439;27;45722;-71
2022/11/24 09:16:02;;;;;;;4.50;3.20;;;17.40;72.50;;;;;;5143600;27;44601;-71
2022/11/24 09:18:30;;;;;;;3.17;2.90;;;17.40;72.50;;;;;;5141338;27;43390;-71
2022/11/24 09:21:06;;;;;;;3.67;3.23;;;17.40;72.70;;;;;;5139470;27;43557;-71
2022/11/24 09:23:34;;;;;;;4.47;3.50;;;17.40;73.10;;;;;;5141782;27;45774;-72
2022/11/24 09:26:05;;;;;;;4.90;3.27;;;17.40;73.20;;;;;;5138996;27;43416;-73
2022/11/24 09:28:33;;;;;;;6.67;3.60;;;17.50;72.80;;;;;;5136570;27;43995;-72
2022/11/24 09:31:01;;;;;;;3.70;3.07;;;17.60;72.50;;;;;;5143591;27;43453;-71
2022/11/24 09:33:30;;;;;;;3.47;3.13;;;17.60;72.20;;;;;;5144224;27;45395;-72
2022/11/24 09:35:58;;;;;;;5.10;3.37;;;17.60;72.20;;;;;;5135354;27;43400;-73
2022/11/24 09:38:26;;;;;;;4.90;3.70;;;17.50;72.40;;;;;;5139273;27;43440;-75
2022/11/24 09:40:54;;;;;;;4.43;3.50;;;17.50;72.60;;;;;;5138906;27;43491;-72
2022/11/24 09:43:26;;;;;;;3.63;3.33;;;17.50;72.40;;;;;;5132804;27;44078;-71
2022/11/24 09:45:55;;;;;;;3.87;3.40;;;17.50;72.30;;;;;;5136596;27;43437;-73
2022/11/24 09:48:34;;;;;;;3.50;3.17;;;17.50;72.40;;;;;;5141297;27;43381;-71
2022/11/24 09:51:03;;;;;;;3.00;2.80;;;17.40;72.40;;;;;;5133519;27;43447;-73
2022/11/24 09:53:32;;;;;;;4.50;3.43;;;17.40;72.70;;;;;;5140731;27;43907;-71
2022/11/24 09:56:02;;;;;;;4.07;3.50;;;17.40;73.00;;;;;;5143710;27;43333;-72
2022/11/24 09:58:35;;;;;;;3.43;3.13;;;17.40;72.80;;;;;;5127352;27;43366;-73
2022/11/24 10:01:05;;;;;;;3.00;2.80;;;17.40;72.70;;;;;;5137210;27;43561;-71
2022/11/24 10:03:36;;;;;;;4.10;3.40;;;17.40;72.70;;;;;;5139972;27;43682;-72
2022/11/24 10:06:10;;;;;;;3.23;2.93;;;17.40;72.90;;;;;;5140147;27;43425;-73
2022/11/24 10:09:06;;;;;;;3.30;3.10;;;17.30;73.00;;;;;;5144616;27;43368;-71
2022/11/24 10:11:36;;;;;;;3.53;3.23;;;17.40;73.30;;;;;;5131876;27;44007;-71
2022/11/24 10:14:22;;;;;;;4.03;3.43;;;17.50;73.00;;;;;;5143785;27;43867;-71
2022/11/24 10:16:52;;;;;;;2.90;2.70;;;17.60;72.50;;;;;;5129957;27;43496;-73
2022/11/24 10:19:28;;;;;;;3.63;3.10;;;17.60;72.20;;;;;;5131529;27;43445;-71
2022/11/24 10:22:12;;;;;;;3.60;3.30;;;17.60;72.10;;;;;;5142651;27;43439;-71
2022/11/24 10:25:03;;;;;;;4.90;3.53;;;17.50;72.50;;;;;;5144759;27;44340;-72
2022/11/24 10:27:34;;;;;;;3.40;3.10;;;17.50;72.50;;;;;;5128890;27;43457;-73
2022/11/24 10:30:07;;;;;;;3.27;2.97;;;17.50;72.30;;;;;;5136770;27;43758;-72
2022/11/24 10:32:36;;;;;;;3.67;3.37;;;17.50;72.30;;;;;;5145166;27;43481;-76
2022/11/24 10:35:14;;;;;;;3.40;3.07;;;17.50;72.40;;;;;;5129955;27;44349;-71
2022/11/24 10:37:45;;;;;;;3.50;3.20;;;17.40;72.50;;;;;;5134530;27;43544;-73
2022/11/24 10:40:17;;;;;;;3.57;3.33;;;17.40;73.00;;;;;;5135947;27;43466;-72
2022/11/24 10:43:09;;;;;;;3.77;3.00;;;17.40;72.90;;;;;;5128356;27;43480;-72
2022/11/24 10:45:39;;;;;;;3.10;2.90;;;17.40;72.70;;;;;;5131169;27;44135;-73
2022/11/24 10:48:11;;;;;;;2.90;2.70;;;17.40;73.40;;;;;;5131141;27;43399;-70
2022/11/24 10:50:40;;;;;;;3.37;3.07;;;17.40;72.80;;;;;;5133748;27;43401;-71
2022/11/24 10:53:14;;;;;;;3.27;3.07;;;17.30;72.80;;;;;;5141428;27;43524;-74
2022/11/24 10:56:03;;;;;;;3.13;2.93;;;17.30;73.20;;;;;;5136930;27;43919;-74
2022/11/24 10:58:32;;;;;;;2.80;2.67;;;17.50;73.20;;;;;;5125088;27;43378;-71
2022/11/24 11:01:23;;;;;;;3.30;3.10;;;17.50;72.60;;;;;;5128015;27;43529;-72
2022/11/24 11:03:52;;;;;;;3.03;2.93;;;17.60;72.30;;;;;;5117654;27;43390;-72
2022/11/24 11:06:21;;;;;;;3.23;3.00;;;17.50;72.10;;;;;;5111197;27;43594;-72
2022/11/24 11:08:49;;;;;;;3.33;3.10;;;17.50;72.30;;;;;;5111020;27;43362;-73
2022/11/24 11:11:22;;;;;;;3.53;3.23;;;17.50;72.70;;;;;;5119139;27;43392;-72
2022/11/24 11:13:54;;;;;;;3.23;2.93;;;17.50;72.50;;;;;;5112547;27;43566;-70
2022/11/24 11:16:36;;;;;;;3.00;2.80;;;17.50;72.40;;;;;;5120873;27;43606;-72
2022/11/24 11:19:04;;;;;;;3.73;3.23;;;17.50;72.50;;;;;;5113824;27;43405;-72
2022/11/24 11:21:59;;;;;;;2.90;2.80;;;17.40;72.40;;;;;;5112209;27;43471;-72
2022/11/24 11:24:27;;;;;;;3.60;3.30;;;17.40;72.70;;;;;;5116636;27;43393;-73
2022/11/24 11:26:59;;;;;;;3.27;3.07;;;17.40;72.70;;;;;;5121949;27;43582;-71
2022/11/24 11:29:28;;;;;;;4.40;2.97;;;17.30;72.70;;;;;;5107757;27;45124;-72
2022/11/24 11:32:18;;;;;;;3.37;3.07;;;17.30;72.90;;;;;;5117550;27;43731;-73
2022/11/24 11:35:11;;;;;;;2.80;2.60;;;17.30;72.90;;;;;;5120862;27;43452;-74
2022/11/24 11:37:39;;;;;;;3.23;3.03;;;17.30;73.00;;;;;;5116970;27;43902;-72
2022/11/24 11:40:11;;;;;;;3.40;3.10;;;17.30;73.30;;;;;;5114642;27;43415;-72
2022/11/24 11:42:44;;;;;;;3.50;3.20;;;17.40;73.50;;;;;;5105911;27;43477;-73
2022/11/24 11:45:33;;;;;;;3.00;2.90;;;17.50;73.20;;;;;;5115607;27;43492;-73
2022/11/24 11:48:14;;;;;;;3.20;3.00;;;17.60;72.60;;;;;;5117959;27;43734;-72
2022/11/24 11:50:44;;;;;;;3.50;3.20;;;17.80;72.10;;;;;;5111319;27;43354;-71
2022/11/24 11:53:35;;;;;;;3.30;2.87;;;18.00;71.60;;;;;;5112631;27;43490;-71
2022/11/24 11:56:08;;;;;;;3.30;3.10;;;18.20;71.00;;;;;;5105830;27;43386;-71
2022/11/24 11:59:10;;;;;;;3.30;3.10;;;18.30;70.00;;;;;;5101813;27;45225;-73
2022/11/24 12:01:52;;;;;;;3.20;2.90;;;18.50;69.60;;;;;;5117220;27;43801;-72
2022/11/24 12:04:24;;;;;;;4.30;3.07;;;18.60;69.20;;;;;;5126697;27;43481;-71
2022/11/24 12:07:11;;;;;;;3.17;2.97;;;18.70;68.90;;;;;;5143764;27;43405;-71
2022/11/24 12:09:47;;;;;;;3.33;3.07;;;18.80;68.60;;;;;;5137558;27;43594;-72
2022/11/24 12:12:33;;;;;;;3.30;3.10;;;18.80;68.50;;;;;;5134796;27;43432;-72
2022/11/24 12:15:04;;;;;;;3.97;3.57;;;18.70;68.70;;;;;;5137736;27;43400;-73
2022/11/24 12:17:39;;;;;;;3.37;3.10;;;18.50;69.00;;;;;;5139210;27;43470;-71
2022/11/24 12:20:31;;;;;;;3.40;3.13;;;18.40;69.40;;;;;;5132668;27;43909;-72
2022/11/24 12:23:02;;;;;;;3.00;2.87;;;18.20;70.20;;;;;;5139714;27;43439;-71
2022/11/24 12:25:33;;;;;;;3.20;3.00;;;18.10;70.40;;;;;;5136267;27;43485;-71
2022/11/24 12:28:13;;;;;;;3.10;2.90;;;18.10;70.50;;;;;;5126063;27;43334;-72
2022/11/24 12:30:43;;;;;;;3.00;2.90;;;18.00;70.70;;;;;;5130891;27;43854;-71
2022/11/24 12:33:24;;;;;;;3.43;3.17;;;17.90;71.00;;;;;;5137690;27;43409;-71
2022/11/24 12:36:02;;;;;;;3.50;3.30;;;17.80;71.80;;;;;;5138610;27;43407;-72
2022/11/24 12:38:37;;;;;;;3.00;2.80;;;17.80;71.90;;;;;;5140947;27;43408;-71
2022/11/24 12:41:19;;;;;;;2.70;2.60;;;17.70;71.70;;;;;;5128124;27;43733;-71
2022/11/24 12:44:10;;;;;;;2.67;2.57;;;17.70;71.70;;;;;;5130249;27;44410;-72
2022/11/24 12:46:40;;;;;;;3.00;2.80;;;17.60;71.80;;;;;;5133975;27;43389;-73
2022/11/24 12:49:12;;;;;;;2.57;2.47;;;17.60;72.20;;;;;;5135996;27;43438;-70
2022/11/24 12:51:42;;;;;;;2.97;2.77;;;17.60;72.70;;;;;;5129519;27;43952;-72
2022/11/24 12:54:12;;;;;;;2.80;2.70;;;17.70;73.10;;;;;;5134104;27;44345;-72
2022/11/24 12:56:42;;;;;;;2.90;2.77;;;17.80;72.10;;;;;;5125256;27;43446;-71
2022/11/24 12:59:20;;;;;;;3.13;3.00;;;17.90;71.70;;;;;;5129444;27;43347;-72
2022/11/24 13:01:50;;;;;;;3.20;3.00;;;17.90;71.40;;;;;;5123086;27;43852;-73
2022/11/24 13:04:25;;;;;;;2.90;2.80;;;17.80;71.40;;;;;;5127778;27;44048;-73
2022/11/24 13:06:57;;;;;;;2.70;2.60;;;17.80;71.80;;;;;;5134193;27;43397;-73
2022/11/24 13:09:25;;;;;;;2.97;2.77;;;17.80;71.70;;;;;;5134625;27;43448;-72
2022/11/24 13:11:53;;;;;;;2.70;2.60;;;17.80;71.60;;;;;;5126498;27;43914;-73